This is the latest recevied weather packets stored in our database for station/object LX2ZZ-13. If no packets are shown the sender has not sent any weather packets the latest 10 day(s).
| Time | Temp. | Humidity | Pressure | Rain* | Wind** | Luminosity | Snow |
|---|---|---|---|---|---|---|---|
| 1777165522 | 0.56° C | 94% | 1021.3 hPa | 0 mm | - | - | - |
| 1777160154 | 1.11° C | 88% | 1021 hPa | 0 mm | - | - | - |
| 1777157139 | 1.67° C | 83% | 1020.9 hPa | 0 mm | - | - | - |
| 1777156536 | 2.78° C | 81% | 1020.8 hPa | 0 mm | - | - | - |
| 1777155933 | 3.33° C | 78% | 1020.6 hPa | 0 mm | - | - | - |
| 1777154123 | 3.33° C | 77% | 1020.6 hPa | 0 mm | - | - | - |
| 1777153519 | 5° C | 73% | 1020.7 hPa | 0 mm | - | - | - |
| 1777141517 | 16.11° C | 34% | 1018.2 hPa | 0 mm | - | - | - |
| 1777136149 | 20° C | 26% | 1017.4 hPa | 0 mm | - | - | - |
| 1777118719 | 20.56° C | 24% | 1018.6 hPa | 0 mm | - | - | - |
| 1777118117 | 20.56° C | 24% | 1018.7 hPa | 0 mm | - | - | - |
| 1777116970 | 20° C | 29% | 1018.7 hPa | 0 mm | - | - | - |
| 1777115161 | 18.89° C | 34% | 1019 hPa | 0 mm | - | - | - |
| 1777110940 | 17.78° C | 39% | 1019.2 hPa | 0 mm | - | - | - |
| 1777106194 | 14.44° C | 54% | 1019.4 hPa | 0 mm | - | - | - |
| 1777105571 | 14.44° C | 54% | 1019.5 hPa | 0 mm | - | - | - |
| 1777103762 | 11.67° C | 65% | 1019.2 hPa | 0 mm | - | - | - |
| 1777100142 | 6.11° C | 82% | 1019.4 hPa | 0 mm | - | - | - |
| 1777098935 | 4.44° C | 91% | 1019.3 hPa | 0 mm | - | - | - |
| 1777092361 | -1.67° C | 99% | 1018.8 hPa | 0 mm | - | - | - |
| 1777091155 | -1.67° C | 98% | 1018.9 hPa | 0 mm | - | - | - |
| 1777089949 | -1.67° C | 98% | 1018.8 hPa | 0 mm | - | - | - |
| 1777088160 | -1.67° C | 98% | 1018.9 hPa | 0 mm | - | - | - |
| 1777082168 | -0.56° C | 96% | 1019.1 hPa | 0 mm | - | - | - |
| 1777081565 | -0.56° C | 96% | 1019.1 hPa | 0 mm | - | - | - |
* Rain latest hour (hover to see other rain measurements)
** Current wind speed in m/s (hover to see current wind gust speed)